createdAt,value
2018-05-11T00:00:05.746Z,84.10
2018-05-11T00:02:34.402Z,86.00
2018-05-11T00:05:02.978Z,86.30
2018-05-11T00:07:31.631Z,84.90
2018-05-11T00:10:00.967Z,83.10
2018-05-11T00:12:29.526Z,83.10
2018-05-11T00:14:58.845Z,83.90
2018-05-11T00:17:27.406Z,84.00
2018-05-11T00:19:56.004Z,83.80
2018-05-11T00:22:24.612Z,83.50
2018-05-11T00:24:53.203Z,83.70
2018-05-11T00:27:21.754Z,84.70
2018-05-11T00:29:50.327Z,86.40
2018-05-11T00:32:19.659Z,84.90
2018-05-11T00:34:48.252Z,84.60
2018-05-11T00:37:16.813Z,84.90
2018-05-11T00:39:45.395Z,84.10
2018-05-11T00:42:13.957Z,84.50
2018-05-11T00:44:43.307Z,84.50
2018-05-11T00:47:12.646Z,85.90
2018-05-11T00:49:41.211Z,85.70
2018-05-11T00:52:09.777Z,86.50
2018-05-11T00:54:38.343Z,87.50
2018-05-11T00:57:06.895Z,87.10
2018-05-11T00:59:36.211Z,85.00
2018-05-11T01:02:04.818Z,85.00
2018-05-11T01:04:33.370Z,83.20
2018-05-11T01:07:02.700Z,84.00
2018-05-11T01:09:31.238Z,84.00
2018-05-11T01:11:59.786Z,84.40
2018-05-11T01:14:28.322Z,84.50
2018-05-11T01:16:57.645Z,85.10
2018-05-11T01:19:26.230Z,85.00
2018-05-11T01:21:54.785Z,85.60
2018-05-11T01:24:24.093Z,84.50
2018-05-11T01:26:52.669Z,84.50
2018-05-11T01:29:22.016Z,84.50
2018-05-11T01:31:50.574Z,84.50
2018-05-11T01:34:19.135Z,83.80
2018-05-11T01:36:48.452Z,83.10
2018-05-11T01:39:17.005Z,83.10
2018-05-11T01:41:45.558Z,83.00
2018-05-11T01:44:14.078Z,82.20
2018-05-11T01:46:42.661Z,82.10
2018-05-11T01:49:11.207Z,82.30
2018-05-11T01:51:39.759Z,82.10
2018-05-11T01:54:08.323Z,83.00
2018-05-11T01:56:37.626Z,83.50
2018-05-11T01:59:06.938Z,85.20
2018-05-11T02:01:35.496Z,85.20
2018-05-11T02:04:04.059Z,84.70
2018-05-11T02:06:32.600Z,84.30
2018-05-11T02:09:01.194Z,83.80
2018-05-11T02:11:29.772Z,82.90
2018-05-11T02:13:59.094Z,82.50
2018-05-11T02:16:27.654Z,82.50
2018-05-11T02:18:56.193Z,82.50
2018-05-11T02:21:24.729Z,81.90
2018-05-11T02:23:53.330Z,82.50
2018-05-11T02:26:21.892Z,84.30
2018-05-11T02:28:50.473Z,85.40
2018-05-11T02:31:19.034Z,84.60
2018-05-11T02:33:47.609Z,83.40
2018-05-11T02:36:16.930Z,82.90
2018-05-11T02:38:45.481Z,82.90
2018-05-11T02:41:14.086Z,83.00
2018-05-11T02:43:42.645Z,84.30
2018-05-11T02:46:11.198Z,85.10
2018-05-11T02:48:39.751Z,85.40
2018-05-11T02:51:08.302Z,83.60
2018-05-11T02:53:37.595Z,83.10
2018-05-11T02:56:06.108Z,83.10
2018-05-11T02:58:34.625Z,84.70
2018-05-11T03:01:03.175Z,85.50
2018-05-11T03:03:31.689Z,84.50
2018-05-11T03:06:00.207Z,82.20
2018-05-11T03:08:29.491Z,82.60
2018-05-11T03:10:58.017Z,82.50
2018-05-11T03:13:26.539Z,83.30
2018-05-11T03:15:55.057Z,83.20
2018-05-11T03:18:24.398Z,83.50
2018-05-11T03:20:53.650Z,84.10
2018-05-11T03:23:22.165Z,84.00
2018-05-11T03:25:50.673Z,83.40
2018-05-11T03:28:19.185Z,83.80
2018-05-11T03:30:47.699Z,83.60
2018-05-11T03:33:16.225Z,82.20
2018-05-11T03:35:44.742Z,82.40
2018-05-11T03:38:13.257Z,82.30
2018-05-11T03:40:41.765Z,83.30
2018-05-11T03:43:10.331Z,84.40
2018-05-11T03:45:38.854Z,84.30
2018-05-11T03:48:07.361Z,84.20
2018-05-11T03:50:35.869Z,83.70
2018-05-11T03:53:04.394Z,82.90
2018-05-11T03:55:32.905Z,83.10
2018-05-11T03:58:01.417Z,83.50
2018-05-11T04:00:29.929Z,83.50
2018-05-11T04:06:08.394Z,84.00
2018-05-11T04:08:44.114Z,83.10
2018-05-11T04:11:12.627Z,83.40
2018-05-11T04:13:41.132Z,82.00
2018-05-11T04:16:10.409Z,83.00
2018-05-11T04:18:38.915Z,82.90
2018-05-11T04:21:08.196Z,81.90
2018-05-11T04:23:36.710Z,81.90
2018-05-11T04:26:05.990Z,82.90
2018-05-11T04:28:34.542Z,82.90
2018-05-11T04:31:03.049Z,83.00
2018-05-11T04:33:31.561Z,83.20
2018-05-11T04:36:00.068Z,82.80
2018-05-11T04:38:28.575Z,83.60
2018-05-11T04:40:57.095Z,84.00
2018-05-11T04:43:26.374Z,83.90
2018-05-11T04:45:54.894Z,83.80
2018-05-11T04:48:23.402Z,83.70
2018-05-11T04:50:51.920Z,83.50
2018-05-11T04:53:20.429Z,84.90
2018-05-11T04:55:49.705Z,84.50
2018-05-11T04:58:18.216Z,84.50
2018-05-11T05:00:47.488Z,82.50
2018-05-11T05:03:16.042Z,82.40
2018-05-11T05:05:44.563Z,84.70
2018-05-11T05:08:13.087Z,84.90
2018-05-11T05:10:41.601Z,86.90
2018-05-11T05:13:10.129Z,86.20
2018-05-11T05:15:39.417Z,85.80
2018-05-11T05:18:08.704Z,85.90
2018-05-11T05:20:37.208Z,86.00
2018-05-11T05:23:06.492Z,89.50
2018-05-11T05:25:35.006Z,89.40
2018-05-11T05:28:03.513Z,88.60
2018-05-11T05:30:32.022Z,88.80
2018-05-11T05:33:00.629Z,88.60
2018-05-11T05:35:29.092Z,86.30
2018-05-11T05:37:57.606Z,85.20
2018-05-11T05:40:26.885Z,84.20
2018-05-11T05:42:55.434Z,84.20
2018-05-11T05:45:23.955Z,84.50
2018-05-11T05:47:53.278Z,83.50
2018-05-11T05:50:21.800Z,83.60
2018-05-11T05:52:50.314Z,84.20
2018-05-11T05:55:18.825Z,84.10
2018-05-11T05:57:47.346Z,83.70
2018-05-11T06:00:15.854Z,83.30
2018-05-11T06:02:44.367Z,83.00
2018-05-11T06:05:13.641Z,82.30
2018-05-11T06:07:42.154Z,82.30
2018-05-11T06:10:10.666Z,82.60
2018-05-11T06:12:39.185Z,81.50
2018-05-11T06:15:07.706Z,82.30
2018-05-11T06:17:36.226Z,81.90
2018-05-11T06:20:04.880Z,81.90
2018-05-11T06:22:34.219Z,81.50
2018-05-11T06:25:02.795Z,81.50
2018-05-11T06:27:31.359Z,81.20
2018-05-11T06:29:59.947Z,80.70
2018-05-11T06:32:28.523Z,81.00
2018-05-11T06:34:57.141Z,80.60
2018-05-11T06:40:00.301Z,79.70
2018-05-11T06:42:28.901Z,79.60
2018-05-11T06:44:58.228Z,80.30
2018-05-11T06:47:27.833Z,79.40
2018-05-11T06:49:56.390Z,79.20
2018-05-11T06:52:26.616Z,79.00
2018-05-11T06:54:55.396Z,77.70
2018-05-11T06:57:23.984Z,76.70
2018-05-11T06:59:52.638Z,77.70
2018-05-11T07:02:22.126Z,76.50
2018-05-11T07:04:50.683Z,76.50
2018-05-11T07:07:19.644Z,75.80
2018-05-11T07:09:48.203Z,75.10
2018-05-11T07:12:17.660Z,74.80
2018-05-11T07:14:46.332Z,74.70
2018-05-11T07:17:14.938Z,74.10
2018-05-11T07:19:43.724Z,73.40
2018-05-11T07:22:12.321Z,71.90
2018-05-11T07:24:40.878Z,72.40
2018-05-11T07:27:09.447Z,72.40
2018-05-11T07:29:38.051Z,72.30
2018-05-11T07:32:06.605Z,72.80
2018-05-11T07:34:35.166Z,73.50
2018-05-11T07:37:04.499Z,72.30
2018-05-11T07:39:33.073Z,72.20
2018-05-11T07:42:01.649Z,72.20
2018-05-11T07:44:30.559Z,72.20
2018-05-11T07:47:00.108Z,73.90
2018-05-11T07:49:28.664Z,73.90
2018-05-11T07:51:57.231Z,75.20
2018-05-11T07:54:25.803Z,75.40
2018-05-11T07:56:54.610Z,75.60
2018-05-11T07:59:23.279Z,75.80
2018-05-11T08:01:52.435Z,75.90
2018-05-11T08:04:21.012Z,75.00
2018-05-11T08:06:49.630Z,76.50
2018-05-11T08:09:18.948Z,75.90
2018-05-11T08:11:47.719Z,76.90
2018-05-11T08:14:16.399Z,75.70
2018-05-11T08:16:45.100Z,75.70
2018-05-11T08:19:13.897Z,76.40
2018-05-11T08:21:43.566Z,75.40
2018-05-11T08:24:12.155Z,75.50
2018-05-11T08:26:41.196Z,75.90
2018-05-11T08:29:10.138Z,75.10
2018-05-11T08:31:39.011Z,73.90
2018-05-11T08:34:07.874Z,73.90
2018-05-11T08:36:36.761Z,74.30
2018-05-11T08:39:06.426Z,74.60
2018-05-11T08:41:35.243Z,74.20
2018-05-11T08:44:04.043Z,74.60
2018-05-11T08:46:32.615Z,72.10
2018-05-11T08:49:01.571Z,71.90
2018-05-11T08:51:30.364Z,72.20
2018-05-11T08:53:58.927Z,72.60
2018-05-11T08:56:28.149Z,72.30
2018-05-11T08:58:57.683Z,71.20
2018-05-11T09:01:26.436Z,70.00
2018-05-11T09:03:55.842Z,70.10
2018-05-11T09:06:25.338Z,70.90
2018-05-11T09:08:53.891Z,70.90
2018-05-11T09:11:22.780Z,70.50
2018-05-11T09:13:51.387Z,70.00
2018-05-11T09:16:20.201Z,67.20
2018-05-11T09:18:49.007Z,68.90
2018-05-11T09:21:19.607Z,68.90
2018-05-11T09:23:48.374Z,68.80
2018-05-11T09:26:18.261Z,67.00
2018-05-11T09:28:47.048Z,67.30
2018-05-11T09:31:15.847Z,67.00
2018-05-11T09:33:44.488Z,65.00
2018-05-11T09:36:13.068Z,62.70
2018-05-11T09:38:41.654Z,61.80
2018-05-11T09:41:10.210Z,62.60
2018-05-11T09:43:39.007Z,65.30
2018-05-11T09:46:07.587Z,63.70
2018-05-11T09:48:36.163Z,62.10
2018-05-11T09:51:04.750Z,58.30
2018-05-11T09:53:33.331Z,58.70
2018-05-11T09:56:01.908Z,59.90
2018-05-11T09:58:30.864Z,58.70
2018-05-11T10:00:59.645Z,59.30
2018-05-11T10:03:29.207Z,61.60
2018-05-11T10:05:57.991Z,61.30
2018-05-11T10:08:26.796Z,60.70
2018-05-11T10:10:57.127Z,58.80
2018-05-11T10:13:25.984Z,59.10
2018-05-11T10:15:54.578Z,61.30
2018-05-11T10:18:23.304Z,59.10
2018-05-11T10:20:51.940Z,59.00
2018-05-11T10:23:20.553Z,58.90
2018-05-11T10:25:49.127Z,62.40
2018-05-11T10:28:17.923Z,59.30
2018-05-11T10:30:46.712Z,56.00
2018-05-11T10:33:15.338Z,54.60
2018-05-11T10:35:44.302Z,54.80
2018-05-11T10:38:13.110Z,54.90
2018-05-11T10:40:43.411Z,54.40
2018-05-11T10:43:12.204Z,54.30
2018-05-11T10:45:40.903Z,53.50
2018-05-11T10:48:10.598Z,53.10
2018-05-11T10:50:39.166Z,53.00
2018-05-11T10:53:08.803Z,53.80
2018-05-11T10:55:38.499Z,53.50
2018-05-11T10:58:07.208Z,53.30
2018-05-11T11:00:37.000Z,51.40
2018-05-11T11:03:05.657Z,51.50
2018-05-11T11:05:34.260Z,51.80
2018-05-11T11:08:03.005Z,51.90
2018-05-11T11:10:31.749Z,50.40
2018-05-11T11:13:00.445Z,50.90
2018-05-11T11:15:29.773Z,51.40
2018-05-11T11:17:58.820Z,51.40
2018-05-11T11:20:27.660Z,52.70
2018-05-11T11:22:56.234Z,51.90
2018-05-11T11:25:25.763Z,51.90
2018-05-11T11:27:54.423Z,51.20
2018-05-11T11:30:23.990Z,51.50
2018-05-11T11:32:52.675Z,51.60
2018-05-11T11:35:21.198Z,51.60
2018-05-11T11:37:49.841Z,51.10
2018-05-11T11:40:18.360Z,52.90
2018-05-11T11:42:47.673Z,53.10
2018-05-11T11:45:16.405Z,53.10
2018-05-11T11:47:45.303Z,53.90
2018-05-11T11:50:13.853Z,55.00
2018-05-11T11:52:42.436Z,52.90
2018-05-11T11:55:11.102Z,52.20
2018-05-11T11:57:39.671Z,51.90
2018-05-11T12:00:09.007Z,52.50
2018-05-11T12:02:37.599Z,52.60
2018-05-11T12:05:06.183Z,51.20
2018-05-11T12:07:34.751Z,53.70
2018-05-11T12:10:03.326Z,50.10
2018-05-11T12:12:31.881Z,51.80
2018-05-11T12:15:00.471Z,49.40
2018-05-11T12:17:29.809Z,52.30
2018-05-11T12:19:58.379Z,52.30
2018-05-11T12:22:27.282Z,51.30
2018-05-11T12:24:55.843Z,51.40
2018-05-11T12:27:25.179Z,50.60
2018-05-11T12:29:53.763Z,50.50
2018-05-11T12:32:22.337Z,49.10
2018-05-11T12:34:50.936Z,50.40
2018-05-11T12:37:19.539Z,49.50
2018-05-11T12:39:48.159Z,52.70
2018-05-11T12:42:17.658Z,49.20
2018-05-11T12:44:46.394Z,49.30
2018-05-11T12:47:14.963Z,48.60
2018-05-11T12:49:43.573Z,50.00
2018-05-11T12:52:12.160Z,49.70
2018-05-11T12:54:40.751Z,49.50
2018-05-11T12:57:09.486Z,49.60
2018-05-11T12:59:38.083Z,49.30
2018-05-11T13:02:06.654Z,51.50
2018-05-11T13:04:35.234Z,49.30
2018-05-11T13:07:03.807Z,49.60
2018-05-11T13:09:33.154Z,50.40
2018-05-11T13:12:01.733Z,50.30
2018-05-11T13:14:30.312Z,47.10
2018-05-11T13:16:58.912Z,50.70
2018-05-11T13:19:27.493Z,47.10
2018-05-11T13:21:56.067Z,48.70
2018-05-11T13:24:24.626Z,49.10
2018-05-11T13:26:53.203Z,49.40
2018-05-11T13:29:22.539Z,49.40
2018-05-11T13:31:51.111Z,49.40
2018-05-11T13:34:19.673Z,49.70
2018-05-11T13:36:48.997Z,49.10
2018-05-11T13:39:17.582Z,49.10
2018-05-11T13:41:46.155Z,49.70
2018-05-11T13:44:14.722Z,48.80
2018-05-11T13:46:44.055Z,49.30
2018-05-11T13:49:12.590Z,49.30
2018-05-11T13:51:41.130Z,49.30
2018-05-11T13:54:09.694Z,50.50
2018-05-11T13:56:38.253Z,50.20
2018-05-11T13:59:07.546Z,48.80
2018-05-11T14:01:36.057Z,48.80
2018-05-11T14:04:04.569Z,48.50
2018-05-11T14:06:33.091Z,46.70
2018-05-11T14:09:01.615Z,47.10
2018-05-11T14:11:30.129Z,47.80
2018-05-11T14:13:58.643Z,49.10
2018-05-11T14:16:27.154Z,47.10
2018-05-11T14:18:55.661Z,46.00
2018-05-11T14:21:24.171Z,49.20
2018-05-11T14:23:52.675Z,46.30
2018-05-11T14:26:21.950Z,47.70
2018-05-11T14:28:50.474Z,47.50
2018-05-11T14:31:18.987Z,46.30
2018-05-11T14:33:47.488Z,45.20
2018-05-11T14:36:15.999Z,49.10
2018-05-11T14:38:45.295Z,47.10
2018-05-11T14:41:14.620Z,47.50
2018-05-11T14:43:43.142Z,47.40
2018-05-11T14:46:11.659Z,47.80
2018-05-11T14:48:40.174Z,47.10
2018-05-11T14:51:08.684Z,47.20
2018-05-11T14:53:37.184Z,47.10
2018-05-11T14:56:05.692Z,48.70
2018-05-11T14:58:34.203Z,46.90
2018-05-11T15:01:02.719Z,46.50
2018-05-11T15:03:31.230Z,47.00
2018-05-11T15:05:59.751Z,47.10
2018-05-11T15:08:28.256Z,48.00
2018-05-11T15:10:56.761Z,47.60
2018-05-11T15:13:25.270Z,47.90
2018-05-11T15:15:53.789Z,48.30
2018-05-11T15:18:22.311Z,48.00
2018-05-11T15:20:50.823Z,47.80
2018-05-11T15:23:20.093Z,46.90
2018-05-11T15:25:48.593Z,46.80
2018-05-11T15:28:17.109Z,43.50
2018-05-11T15:30:45.616Z,44.20
2018-05-11T15:33:14.145Z,42.60
2018-05-11T15:35:42.656Z,42.10
2018-05-11T15:38:11.166Z,44.50
2018-05-11T15:40:39.680Z,43.20
2018-05-11T15:43:08.223Z,41.00
2018-05-11T15:45:36.759Z,40.50
2018-05-11T15:48:05.262Z,42.20
2018-05-11T15:50:33.773Z,45.00
2018-05-11T15:53:02.273Z,45.10
2018-05-11T15:55:30.778Z,46.00
2018-05-11T15:57:59.287Z,46.70
2018-05-11T16:00:28.603Z,46.10
2018-05-11T16:02:57.114Z,46.00
2018-05-11T16:05:25.628Z,46.10
2018-05-11T16:07:54.141Z,46.10
2018-05-11T16:10:22.652Z,47.20
2018-05-11T16:12:51.240Z,47.10
2018-05-11T16:15:19.714Z,46.10
2018-05-11T16:17:48.222Z,47.00
2018-05-11T16:20:16.731Z,47.00
2018-05-11T16:22:45.270Z,46.40
2018-05-11T16:25:14.555Z,46.90
2018-05-11T16:27:43.102Z,46.90
2018-05-11T16:30:12.382Z,47.60
2018-05-11T16:32:40.902Z,47.60
2018-05-11T16:35:09.410Z,48.70
2018-05-11T16:37:38.166Z,49.10
2018-05-11T16:40:07.446Z,48.90
2018-05-11T16:42:35.949Z,49.10
2018-05-11T16:45:04.486Z,49.20
2018-05-11T16:47:33.003Z,49.50
2018-05-11T16:50:02.345Z,48.70
2018-05-11T16:52:30.831Z,48.60
2018-05-11T16:54:59.372Z,48.70
2018-05-11T16:57:28.650Z,48.10
2018-05-11T16:59:57.166Z,48.00
2018-05-11T17:02:25.674Z,48.20
2018-05-11T17:04:54.182Z,49.50
2018-05-11T17:07:22.723Z,48.80
2018-05-11T17:09:51.221Z,48.60
2018-05-11T17:12:19.728Z,48.00
2018-05-11T17:14:48.235Z,50.10
2018-05-11T17:17:16.741Z,48.40
2018-05-11T17:19:45.281Z,48.30
2018-05-11T17:22:13.797Z,50.00
2018-05-11T17:24:43.075Z,49.80
2018-05-11T17:27:11.585Z,49.70
2018-05-11T17:29:40.855Z,50.70
2018-05-11T17:32:09.362Z,50.60
2018-05-11T17:34:38.643Z,50.70
2018-05-11T17:37:07.153Z,50.70
2018-05-11T17:39:35.657Z,49.10
2018-05-11T17:42:04.201Z,51.40
2018-05-11T17:44:33.478Z,49.60
2018-05-11T17:47:01.998Z,49.60
2018-05-11T17:49:30.515Z,50.70
2018-05-11T17:51:59.034Z,50.40
2018-05-11T17:54:27.573Z,50.20
2018-05-11T17:56:56.098Z,49.30
2018-05-11T17:59:25.398Z,50.70
2018-05-11T18:01:53.905Z,50.70
2018-05-11T18:04:23.190Z,50.50
2018-05-11T18:06:51.701Z,50.60
2018-05-11T18:09:20.240Z,51.10
2018-05-11T18:11:48.745Z,51.60
2018-05-11T18:14:18.008Z,53.40
2018-05-11T18:16:46.527Z,53.40
2018-05-11T18:19:15.804Z,54.10
2018-05-11T18:21:44.314Z,54.10
2018-05-11T18:24:13.588Z,54.30
2018-05-11T18:26:42.104Z,54.30
2018-05-11T18:29:11.382Z,55.80
2018-05-11T18:31:39.886Z,55.70
2018-05-11T18:34:08.454Z,56.90
2018-05-11T18:36:36.961Z,56.70
2018-05-11T18:39:06.481Z,55.90
2018-05-11T18:41:34.986Z,57.20
2018-05-11T18:44:03.539Z,56.80
2018-05-11T18:46:32.081Z,91.90
2018-05-11T18:49:00.039Z,92.30
2018-05-11T18:51:27.829Z,98.70
2018-05-11T18:53:55.838Z,99.90
2018-05-11T18:56:24.213Z,93.10
2018-05-11T18:58:52.020Z,93.30
2018-05-11T19:01:19.813Z,93.60
2018-05-11T19:03:47.609Z,91.40
2018-05-11T19:06:15.398Z,91.30
2018-05-11T19:08:43.951Z,90.60
2018-05-11T19:11:11.749Z,90.60
2018-05-11T19:13:40.310Z,80.40
2018-05-11T19:16:08.134Z,80.50
2018-05-11T19:18:35.925Z,88.40
2018-05-11T19:21:03.757Z,72.70
2018-05-11T19:23:31.584Z,89.50
2018-05-11T19:25:59.433Z,85.90
2018-05-11T19:28:27.217Z,75.80
2018-05-11T19:30:55.005Z,82.20
2018-05-11T19:33:23.644Z,85.60
2018-05-11T19:35:51.474Z,85.60
2018-05-11T19:38:19.259Z,81.20
2018-05-11T19:43:21.772Z,78.10
2018-05-11T19:45:49.564Z,77.70
2018-05-11T19:48:18.125Z,81.10
2018-05-11T19:50:45.920Z,81.00
2018-05-11T19:53:14.472Z,79.40
2018-05-11T19:55:42.256Z,79.40
2018-05-11T19:58:10.053Z,81.30
2018-05-11T20:00:37.841Z,83.10
2018-05-11T20:03:05.630Z,81.00
2018-05-11T20:05:33.421Z,82.00
2018-05-11T20:08:02.005Z,82.60
2018-05-11T20:10:30.563Z,80.80
2018-05-11T20:12:58.355Z,80.70
2018-05-11T20:15:26.920Z,82.50
2018-05-11T20:17:54.712Z,82.30
2018-05-11T20:20:23.274Z,81.90
2018-05-11T20:22:51.077Z,81.80
2018-05-11T20:25:18.869Z,83.10
2018-05-11T20:27:46.806Z,85.20
2018-05-11T20:30:14.612Z,84.50
2018-05-11T20:32:42.515Z,83.40
2018-05-11T20:35:10.254Z,85.20
2018-05-11T20:37:38.049Z,83.00
2018-05-11T20:40:06.609Z,80.40
2018-05-11T20:42:34.394Z,80.40
2018-05-11T20:45:02.186Z,81.60
2018-05-11T20:47:29.986Z,83.00
2018-05-11T20:49:57.819Z,82.90
2018-05-11T20:52:25.608Z,81.60
2018-05-11T20:54:53.400Z,82.40
2018-05-11T20:57:21.187Z,82.10
2018-05-11T20:59:48.977Z,83.40
2018-05-11T21:02:16.768Z,81.90
2018-05-11T21:04:44.563Z,81.10
2018-05-11T21:07:12.353Z,80.30
2018-05-11T21:09:40.924Z,80.10
2018-05-11T21:12:08.716Z,79.90
2018-05-11T21:14:36.514Z,80.20
2018-05-11T21:17:04.343Z,80.60
2018-05-11T21:19:32.905Z,81.60
2018-05-11T21:22:00.706Z,81.30
2018-05-11T21:24:28.505Z,80.10
2018-05-11T21:26:56.306Z,77.80
2018-05-11T21:29:24.862Z,79.80
2018-05-11T21:31:52.649Z,79.60
2018-05-11T21:34:20.436Z,78.30
2018-05-11T21:36:49.033Z,79.50
2018-05-11T21:39:16.834Z,79.70
2018-05-11T21:41:44.704Z,79.40
2018-05-11T21:44:12.493Z,79.30
2018-05-11T21:46:40.294Z,78.60
2018-05-11T21:49:08.512Z,77.30
2018-05-11T21:51:37.072Z,77.00
2018-05-11T21:54:05.227Z,76.90
2018-05-11T21:56:33.504Z,77.60
2018-05-11T21:59:01.292Z,79.00
2018-05-11T22:01:29.084Z,78.20
2018-05-11T22:03:56.886Z,77.50
2018-05-11T22:06:25.449Z,79.50
2018-05-11T22:08:53.251Z,79.40
2018-05-11T22:11:21.052Z,80.00
2018-05-11T22:13:48.847Z,79.00
2018-05-11T22:16:16.644Z,79.30
2018-05-11T22:18:44.440Z,78.70
2018-05-11T22:21:12.242Z,78.30
2018-05-11T22:23:40.037Z,79.20
2018-05-11T22:26:07.845Z,78.60
2018-05-11T22:28:35.657Z,79.10
2018-05-11T22:31:04.225Z,78.80
2018-05-11T22:33:32.026Z,78.80
2018-05-11T22:35:59.825Z,78.80
2018-05-11T22:38:27.613Z,79.20
2018-05-11T22:40:55.409Z,80.10
2018-05-11T22:43:23.205Z,79.50
2018-05-11T22:45:50.998Z,79.50
2018-05-11T22:48:18.794Z,79.90
2018-05-11T22:50:47.353Z,79.50
2018-05-11T22:53:15.141Z,79.50
2018-05-11T22:55:43.714Z,80.30
2018-05-11T22:58:11.513Z,80.10
2018-05-11T23:00:40.259Z,80.50
2018-05-11T23:03:08.048Z,80.50
2018-05-11T23:05:36.787Z,79.80
2018-05-11T23:08:04.602Z,79.70
2018-05-11T23:10:33.160Z,79.50
2018-05-11T23:13:00.961Z,79.90
2018-05-11T23:15:28.747Z,80.00
2018-05-11T23:17:57.310Z,79.90
2018-05-11T23:20:25.115Z,79.90
2018-05-11T23:22:52.905Z,79.30
2018-05-11T23:25:20.701Z,79.80
2018-05-11T23:27:49.275Z,80.40
2018-05-11T23:30:17.849Z,81.50
2018-05-11T23:32:45.636Z,81.50
2018-05-11T23:35:14.266Z,82.20
2018-05-11T23:37:42.017Z,82.20
2018-05-11T23:40:09.810Z,82.50
2018-05-11T23:42:37.600Z,82.00
2018-05-11T23:45:05.394Z,81.60
2018-05-11T23:47:33.189Z,82.00
2018-05-11T23:50:00.996Z,81.90
2018-05-11T23:52:28.793Z,82.60
2018-05-11T23:54:56.590Z,82.50
2018-05-11T23:57:24.394Z,82.90
2018-05-11T23:59:52.952Z,82.80
